createdAt,value
2018-06-13T00:02:24.968Z,100298.64
2018-06-13T00:04:53.238Z,100291.54
2018-06-13T00:07:21.428Z,100291.83
2018-06-13T00:09:49.601Z,100300.07
2018-06-13T00:12:17.844Z,100300.91
2018-06-13T00:14:46.030Z,100295.97
2018-06-13T00:17:14.344Z,100297.58
2018-06-13T00:19:42.594Z,100293.77
2018-06-13T00:22:10.842Z,100293.20
2018-06-13T00:24:39.415Z,100291.27
2018-06-13T00:27:07.667Z,100287.16
2018-06-13T00:29:35.887Z,100286.08
2018-06-13T00:32:04.091Z,100278.92
2018-06-13T00:34:32.388Z,100278.38
2018-06-13T00:37:00.988Z,100285.75
2018-06-13T00:39:29.208Z,100291.30
2018-06-13T00:41:57.399Z,100285.00
2018-06-13T00:44:25.738Z,100291.06
2018-06-13T00:46:53.904Z,100285.12
2018-06-13T00:49:22.533Z,100282.70
2018-06-13T00:51:50.711Z,100283.00
2018-06-13T00:54:18.900Z,100285.78
2018-06-13T00:56:47.135Z,100288.27
2018-06-13T00:59:15.339Z,100289.09
2018-06-13T01:01:43.593Z,100284.50
2018-06-13T01:04:11.752Z,100285.90
2018-06-13T01:06:39.898Z,100285.09
2018-06-13T01:09:08.688Z,100279.34
2018-06-13T01:11:36.926Z,100280.98
2018-06-13T01:14:05.226Z,100276.60
2018-06-13T01:16:33.435Z,100276.91
2018-06-13T01:19:01.649Z,100281.88
2018-06-13T01:21:29.871Z,100278.30
2018-06-13T01:23:58.142Z,100282.41
2018-06-13T01:26:26.310Z,100282.69
2018-06-13T01:28:54.582Z,100279.42
2018-06-13T01:31:22.836Z,100280.28
2018-06-13T01:33:51.077Z,100277.27
2018-06-13T01:36:22.036Z,100277.84
2018-06-13T01:38:50.252Z,100272.34
2018-06-13T01:41:20.844Z,100270.96
2018-06-13T01:43:49.023Z,100272.85
2018-06-13T01:46:17.290Z,100276.17
2018-06-13T01:48:45.516Z,100273.73
2018-06-13T01:51:13.752Z,100281.69
2018-06-13T01:53:42.252Z,100273.47
2018-06-13T01:56:10.530Z,100278.94
2018-06-13T01:58:38.700Z,100274.57
2018-06-13T02:01:06.876Z,100274.84
2018-06-13T02:03:35.097Z,100277.08
2018-06-13T02:06:03.318Z,100280.92
2018-06-13T02:08:38.170Z,100269.72
2018-06-13T02:11:06.343Z,100274.92
2018-06-13T02:13:34.584Z,100276.79
2018-06-13T02:16:02.806Z,100275.98
2018-06-13T02:18:30.982Z,100277.64
2018-06-13T02:20:59.180Z,100277.08
2018-06-13T02:23:27.417Z,100270.52
2018-06-13T02:25:55.575Z,100265.59
2018-06-13T02:28:23.772Z,100263.14
2018-06-13T02:30:52.038Z,100261.52
2018-06-13T02:33:20.199Z,100265.36
2018-06-13T02:35:48.704Z,100269.72
2018-06-13T02:38:16.933Z,100275.42
2018-06-13T02:40:45.119Z,100276.53
2018-06-13T02:43:13.328Z,100271.33
2018-06-13T02:45:41.531Z,100270.52
2018-06-13T02:48:09.717Z,100278.47
2018-06-13T02:50:37.901Z,100289.95
2018-06-13T02:53:06.115Z,100279.53
2018-06-13T02:55:34.328Z,100282.82
2018-06-13T02:58:02.721Z,100283.91
2018-06-13T03:00:30.885Z,100285.28
2018-06-13T03:02:59.115Z,100295.66
2018-06-13T03:05:34.184Z,100292.66
2018-06-13T03:08:02.382Z,100293.21
2018-06-13T03:10:30.595Z,100292.66
2018-06-13T03:12:59.004Z,100298.13
2018-06-13T03:15:27.276Z,100300.30
2018-06-13T03:17:55.462Z,100294.84
2018-06-13T03:20:23.675Z,100291.84
2018-06-13T03:22:51.906Z,100295.39
2018-06-13T03:25:20.165Z,100299.20
2018-06-13T03:27:48.331Z,100296.47
2018-06-13T03:30:16.493Z,100300.85
2018-06-13T03:32:44.765Z,100301.67
2018-06-13T03:35:12.936Z,100306.32
2018-06-13T03:37:41.196Z,100311.48
2018-06-13T03:40:09.363Z,100316.14
2018-06-13T03:42:37.528Z,100321.61
2018-06-13T03:45:05.973Z,100320.24
2018-06-13T03:47:34.227Z,100318.06
2018-06-13T03:50:02.403Z,100321.90
2018-06-13T03:52:30.684Z,100317.80
2018-06-13T03:54:58.944Z,100322.16
2018-06-13T03:57:27.140Z,100324.63
2018-06-13T03:59:55.407Z,100318.06
2018-06-13T04:02:23.618Z,100325.44
2018-06-13T04:04:51.781Z,100310.70
2018-06-13T04:07:20.214Z,100313.44
2018-06-13T04:09:48.394Z,100315.33
2018-06-13T04:12:16.617Z,100315.33
2018-06-13T04:14:44.812Z,100315.88
2018-06-13T04:17:13.017Z,100314.77
2018-06-13T04:19:41.384Z,100320.53
2018-06-13T04:22:09.568Z,100321.34
2018-06-13T04:24:37.747Z,100325.18
2018-06-13T04:27:05.921Z,100324.08
2018-06-13T04:29:34.153Z,100321.89
2018-06-13T04:32:02.713Z,100326.26
2018-06-13T04:34:30.937Z,100323.81
2018-06-13T04:36:59.165Z,100321.08
2018-06-13T04:39:27.638Z,100311.78
2018-06-13T04:41:56.014Z,100314.52
2018-06-13T04:44:24.181Z,100320.24
2018-06-13T04:46:52.396Z,100316.14
2018-06-13T04:49:20.931Z,100319.42
2018-06-13T04:51:49.151Z,100311.48
2018-06-13T04:54:17.361Z,100320.53
2018-06-13T04:56:45.548Z,100320.24
2018-06-13T04:59:13.771Z,100325.44
2018-06-13T05:01:41.960Z,100334.45
2018-06-13T05:04:10.156Z,100336.92
2018-06-13T05:06:38.342Z,100334.45
2018-06-13T05:09:07.635Z,100345.13
2018-06-13T05:11:35.866Z,100342.68
2018-06-13T05:14:04.132Z,100345.94
2018-06-13T05:16:38.827Z,100347.36
2018-06-13T05:19:07.007Z,100347.35
2018-06-13T05:21:35.192Z,100345.69
2018-06-13T05:24:03.426Z,100349.52
2018-06-13T05:26:31.712Z,100351.71
2018-06-13T05:28:59.928Z,100354.98
2018-06-13T05:31:28.126Z,100357.70
2018-06-13T05:33:56.390Z,100356.35
2018-06-13T05:36:24.656Z,100354.98
2018-06-13T05:38:52.887Z,100353.62
2018-06-13T05:41:21.068Z,100362.39
2018-06-13T05:43:49.270Z,100360.97
2018-06-13T05:46:17.450Z,100359.89
2018-06-13T05:48:45.722Z,100370.02
2018-06-13T05:51:13.925Z,100372.51
2018-06-13T05:53:42.133Z,100373.58
2018-06-13T05:56:10.440Z,100376.32
2018-06-13T05:58:38.712Z,100373.33
2018-06-13T06:01:06.909Z,100378.79
2018-06-13T06:03:35.755Z,100375.80
2018-06-13T06:06:03.994Z,100381.78
2018-06-13T06:08:32.306Z,100381.78
2018-06-13T06:11:00.503Z,100378.78
2018-06-13T06:13:28.825Z,100378.23
2018-06-13T06:15:57.064Z,100388.85
2018-06-13T06:18:25.447Z,100390.21
2018-06-13T06:20:53.718Z,100374.92
2018-06-13T06:23:21.962Z,100382.01
2018-06-13T06:25:50.184Z,100382.02
2018-06-13T06:28:18.598Z,100383.12
2018-06-13T06:30:46.930Z,100385.00
2018-06-13T06:33:15.168Z,100393.76
2018-06-13T06:35:43.307Z,100393.77
2018-06-13T06:38:11.919Z,100387.48
2018-06-13T06:40:40.231Z,100376.55
2018-06-13T06:43:08.492Z,100383.15
2018-06-13T06:45:36.801Z,100383.72
2018-06-13T06:48:05.296Z,100381.77
2018-06-13T06:50:33.476Z,100379.56
2018-06-13T06:53:01.716Z,100381.45
2018-06-13T06:55:30.035Z,100383.36
2018-06-13T06:57:58.202Z,100375.69
2018-06-13T07:00:26.396Z,100381.70
2018-06-13T07:02:54.612Z,100372.41
2018-06-13T07:05:22.813Z,100374.30
2018-06-13T07:07:51.104Z,100380.61
2018-06-13T07:10:19.313Z,100366.15
2018-06-13T07:12:47.524Z,100361.23
2018-06-13T07:15:16.098Z,100355.20
2018-06-13T07:17:44.382Z,100357.12
2018-06-13T07:20:12.616Z,100356.60
2018-06-13T07:22:40.847Z,100356.01
2018-06-13T07:25:09.029Z,100359.33
2018-06-13T07:27:37.434Z,100359.86
2018-06-13T07:30:05.682Z,100359.86
2018-06-13T07:32:33.852Z,100357.09
2018-06-13T07:35:02.165Z,100361.95
2018-06-13T07:37:30.416Z,100358.02
2018-06-13T07:39:58.615Z,100359.50
2018-06-13T07:42:26.894Z,100352.77
2018-06-13T07:44:55.064Z,100357.89
2018-06-13T07:47:23.358Z,100365.40
2018-06-13T07:49:51.563Z,100353.27
2018-06-13T07:52:19.732Z,100358.19
2018-06-13T07:54:48.007Z,100356.05
2018-06-13T07:57:16.241Z,100362.17
2018-06-13T07:59:44.739Z,100356.53
2018-06-13T08:02:13.223Z,100350.59
2018-06-13T08:04:41.505Z,100351.20
2018-06-13T08:07:09.726Z,100361.75
2018-06-13T08:09:37.944Z,100366.37
2018-06-13T08:12:06.173Z,100366.13
2018-06-13T08:14:34.417Z,100363.91
2018-06-13T08:17:02.712Z,100365.52
2018-06-13T08:19:30.964Z,100369.02
2018-06-13T08:21:59.244Z,100376.69
2018-06-13T08:24:27.491Z,100371.27
2018-06-13T08:26:55.798Z,100366.22
2018-06-13T08:29:24.556Z,100365.66
2018-06-13T08:31:54.808Z,100369.63
2018-06-13T08:34:24.416Z,100367.02
2018-06-13T08:36:52.807Z,100368.62
2018-06-13T08:39:21.834Z,100361.18
2018-06-13T08:41:51.128Z,100367.17
2018-06-13T08:44:19.813Z,100376.42
2018-06-13T08:46:48.723Z,100376.02
2018-06-13T08:49:17.209Z,100376.48
2018-06-13T08:51:45.725Z,100374.27
2018-06-13T08:54:13.882Z,100374.97
2018-06-13T08:56:42.621Z,100380.64
2018-06-13T08:59:11.295Z,100388.59
2018-06-13T09:01:40.393Z,100381.93
2018-06-13T09:04:09.015Z,100380.03
2018-06-13T09:06:37.201Z,100380.82
2018-06-13T09:09:07.960Z,100381.53
2018-06-13T09:11:37.040Z,100378.41
2018-06-13T09:14:05.841Z,100377.00
2018-06-13T09:16:34.228Z,100381.50
2018-06-13T09:19:02.390Z,100379.35
2018-06-13T09:21:30.574Z,100376.11
2018-06-13T09:23:58.755Z,100380.38
2018-06-13T09:26:26.940Z,100381.51
2018-06-13T09:28:55.117Z,100382.84
2018-06-13T09:31:23.270Z,100382.45
2018-06-13T09:33:51.421Z,100382.00
2018-06-13T09:36:19.725Z,100387.63
2018-06-13T09:38:47.894Z,100388.75
2018-06-13T09:41:16.068Z,100383.53
2018-06-13T09:43:44.310Z,100392.33
2018-06-13T09:46:12.660Z,100387.16
2018-06-13T09:48:40.940Z,100391.55
2018-06-13T09:51:09.160Z,100390.86
2018-06-13T09:53:37.369Z,100399.08
2018-06-13T09:56:06.102Z,100394.09
2018-06-13T09:58:39.743Z,100393.03
2018-06-13T10:01:12.067Z,100393.41
2018-06-13T10:03:40.257Z,100396.16
2018-06-13T10:06:08.399Z,100396.91
2018-06-13T10:08:37.158Z,100396.52
2018-06-13T10:11:05.420Z,100393.55
2018-06-13T10:13:34.015Z,100390.50
2018-06-13T10:16:02.541Z,100395.23
2018-06-13T10:18:31.173Z,100400.77
2018-06-13T10:20:59.412Z,100395.52
2018-06-13T10:23:27.584Z,100391.36
2018-06-13T10:25:55.773Z,100388.13
2018-06-13T10:28:23.920Z,100399.22
2018-06-13T10:30:52.163Z,100388.67
2018-06-13T10:33:20.435Z,100396.23
2018-06-13T10:35:48.596Z,100396.73
2018-06-13T10:38:16.763Z,100393.45
2018-06-13T10:40:44.928Z,100400.84
2018-06-13T10:43:13.064Z,100400.56
2018-06-13T10:45:41.299Z,100401.55
2018-06-13T10:48:09.487Z,100405.91
2018-06-13T10:50:37.688Z,100409.80
2018-06-13T10:53:05.999Z,100402.84
2018-06-13T10:55:34.272Z,100406.19
2018-06-13T10:58:02.412Z,100407.02
2018-06-13T11:00:30.969Z,100413.28
2018-06-13T11:02:59.165Z,100414.84
2018-06-13T11:05:27.401Z,100415.38
2018-06-13T11:07:55.586Z,100407.66
2018-06-13T11:10:23.768Z,100417.79
2018-06-13T11:12:51.955Z,100412.82
2018-06-13T11:15:20.145Z,100415.36
2018-06-13T11:17:48.313Z,100429.39
2018-06-13T11:20:16.516Z,100422.05
2018-06-13T11:22:44.740Z,100422.42
2018-06-13T11:25:12.943Z,100423.54
2018-06-13T11:27:41.133Z,100422.15
2018-06-13T11:30:09.300Z,100425.71
2018-06-13T11:32:37.872Z,100432.30
2018-06-13T11:35:07.329Z,100430.95
2018-06-13T11:37:36.706Z,100435.05
2018-06-13T11:40:05.242Z,100426.56
2018-06-13T11:42:33.450Z,100432.05
2018-06-13T11:45:01.609Z,100435.58
2018-06-13T11:47:29.761Z,100438.84
2018-06-13T11:49:57.944Z,100436.96
2018-06-13T11:52:26.108Z,100440.52
2018-06-13T11:54:54.387Z,100436.66
2018-06-13T11:57:22.564Z,100434.43
2018-06-13T11:59:50.857Z,100437.09
2018-06-13T12:02:19.032Z,100447.69
2018-06-13T12:04:47.315Z,100439.66
2018-06-13T12:07:15.483Z,100443.61
2018-06-13T12:09:43.662Z,100446.31
2018-06-13T12:12:12.356Z,100439.80
2018-06-13T12:14:40.496Z,100440.92
2018-06-13T12:17:08.700Z,100441.92
2018-06-13T12:19:36.845Z,100439.63
2018-06-13T12:22:05.327Z,100447.25
2018-06-13T12:24:33.471Z,100441.02
2018-06-13T12:27:01.638Z,100450.67
2018-06-13T12:29:30.184Z,100438.69
2018-06-13T12:31:58.491Z,100440.37
2018-06-13T12:34:27.445Z,100437.38
2018-06-13T12:36:55.699Z,100439.08
2018-06-13T12:39:23.848Z,100444.88
2018-06-13T12:41:52.279Z,100446.56
2018-06-13T12:44:20.612Z,100442.44
2018-06-13T12:46:48.827Z,100443.77
2018-06-13T12:49:16.985Z,100445.42
2018-06-13T12:51:45.131Z,100444.87
2018-06-13T12:54:13.392Z,100450.03
2018-06-13T12:56:41.711Z,100447.31
2018-06-13T12:59:09.870Z,100444.06
2018-06-13T13:01:38.067Z,100441.59
2018-06-13T13:04:06.254Z,100448.72
2018-06-13T13:06:34.420Z,100449.28
2018-06-13T13:09:02.588Z,100447.08
2018-06-13T13:11:30.888Z,100447.59
2018-06-13T13:13:59.085Z,100447.03
2018-06-13T13:16:27.210Z,100451.93
2018-06-13T13:18:55.385Z,100448.13
2018-06-13T13:21:23.681Z,100445.17
2018-06-13T13:23:51.855Z,100435.51
2018-06-13T13:26:20.336Z,100438.20
2018-06-13T13:28:48.625Z,100446.92
2018-06-13T13:31:16.792Z,100449.91
2018-06-13T13:33:44.943Z,100449.09
2018-06-13T13:36:13.131Z,100437.34
2018-06-13T13:38:41.316Z,100448.66
2018-06-13T13:41:09.551Z,100435.61
2018-06-13T13:43:38.051Z,100439.69
2018-06-13T13:46:06.247Z,100439.97
2018-06-13T13:48:34.487Z,100447.64
2018-06-13T13:51:02.676Z,100446.81
2018-06-13T13:53:30.848Z,100449.05
2018-06-13T13:55:58.998Z,100440.53
2018-06-13T13:58:27.230Z,100445.19
2018-06-13T14:00:55.508Z,100454.77
2018-06-13T14:03:23.655Z,100462.12
2018-06-13T14:05:51.812Z,100463.52
2018-06-13T14:08:20.014Z,100470.36
2018-06-13T14:10:48.176Z,100477.20
2018-06-13T14:13:16.353Z,100468.44
2018-06-13T14:15:44.494Z,100461.51
2018-06-13T14:18:12.928Z,100475.17
2018-06-13T14:20:41.109Z,100470.31
2018-06-13T14:23:09.264Z,100468.67
2018-06-13T14:25:37.415Z,100461.88
2018-06-13T14:28:05.829Z,100475.83
2018-06-13T14:30:34.017Z,100471.69
2018-06-13T14:33:03.086Z,100479.02
2018-06-13T14:35:31.267Z,100478.15
2018-06-13T14:37:59.440Z,100476.25
2018-06-13T14:40:27.591Z,100479.84
2018-06-13T14:42:55.780Z,100476.06
2018-06-13T14:45:23.997Z,100479.94
2018-06-13T14:47:52.144Z,100475.27
2018-06-13T14:50:20.389Z,100472.00
2018-06-13T14:52:49.002Z,100478.61
2018-06-13T14:55:17.345Z,100476.70
2018-06-13T14:57:45.531Z,100480.80
2018-06-13T15:00:13.700Z,100477.21
2018-06-13T15:02:41.879Z,100483.77
2018-06-13T15:05:10.074Z,100485.95
2018-06-13T15:07:38.653Z,100481.84
2018-06-13T15:10:06.776Z,100475.79
2018-06-13T15:12:35.377Z,100487.31
2018-06-13T15:15:03.785Z,100484.28
2018-06-13T15:17:31.924Z,100482.94
2018-06-13T15:20:00.116Z,100493.33
2018-06-13T15:22:28.579Z,100494.67
2018-06-13T15:24:56.744Z,100505.63
2018-06-13T15:27:24.912Z,100502.91
2018-06-13T15:29:53.305Z,100499.65
2018-06-13T15:32:21.491Z,100494.45
2018-06-13T15:34:49.661Z,100499.95
2018-06-13T15:37:17.879Z,100502.13
2018-06-13T15:39:46.187Z,100503.48
2018-06-13T15:42:14.362Z,100507.06
2018-06-13T15:44:42.535Z,100510.06
2018-06-13T15:47:10.704Z,100513.64
2018-06-13T15:49:38.851Z,100515.54
2018-06-13T15:52:07.009Z,100524.30
2018-06-13T15:54:35.169Z,100510.58
2018-06-13T15:57:03.339Z,100513.06
2018-06-13T15:59:31.544Z,100508.97
2018-06-13T16:01:59.725Z,100506.50
2018-06-13T16:04:27.886Z,100496.64
2018-06-13T16:06:56.366Z,100505.39
2018-06-13T16:09:24.525Z,100508.37
2018-06-13T16:11:52.717Z,100512.17
2018-06-13T16:14:20.883Z,100516.28
2018-06-13T16:16:49.059Z,100513.54
2018-06-13T16:19:17.220Z,100514.91
2018-06-13T16:21:45.428Z,100514.92
2018-06-13T16:24:13.582Z,100516.31
2018-06-13T16:26:41.770Z,100513.88
2018-06-13T16:29:09.937Z,100518.52
2018-06-13T16:31:38.079Z,100524.53
2018-06-13T16:34:06.244Z,100522.59
2018-06-13T16:36:34.413Z,100525.36
2018-06-13T16:39:02.581Z,100527.55
2018-06-13T16:41:30.740Z,100526.97
2018-06-13T16:43:58.917Z,100535.16
2018-06-13T16:46:27.092Z,100529.13
2018-06-13T16:48:55.455Z,100532.42
2018-06-13T16:51:35.005Z,100533.23
2018-06-13T16:54:11.457Z,100544.53
2018-06-13T16:56:39.927Z,100546.17
2018-06-13T16:59:08.224Z,100545.11
2018-06-13T17:01:36.512Z,100544.28
2018-06-13T17:04:04.704Z,100546.19
2018-06-13T17:06:32.865Z,100557.70
2018-06-13T17:09:01.079Z,100557.69
2018-06-13T17:11:29.231Z,100557.14
2018-06-13T17:13:57.464Z,100560.98
2018-06-13T17:16:25.726Z,100556.61
2018-06-13T17:18:54.018Z,100557.97
2018-06-13T17:21:22.341Z,100567.57
2018-06-13T17:23:50.733Z,100568.38
2018-06-13T17:26:19.031Z,100571.66
2018-06-13T17:28:47.320Z,100575.76
2018-06-13T17:31:15.816Z,100578.77
2018-06-13T17:33:44.020Z,100579.04
2018-06-13T17:36:12.183Z,100584.25
2018-06-13T17:38:40.412Z,100583.16
2018-06-13T17:41:08.597Z,100582.61
2018-06-13T17:43:36.800Z,100588.90
2018-06-13T17:46:05.126Z,100582.87
2018-06-13T17:48:33.604Z,100585.62
2018-06-13T17:51:01.847Z,100588.11
2018-06-13T17:53:30.071Z,100589.76
2018-06-13T17:55:58.531Z,100594.92
2018-06-13T17:58:26.775Z,100595.73
2018-06-13T18:00:55.038Z,100592.50
2018-06-13T18:03:23.339Z,100592.48
2018-06-13T18:05:51.929Z,100599.05
2018-06-13T18:08:20.159Z,100600.41
2018-06-13T18:10:48.709Z,100603.16
2018-06-13T18:13:16.936Z,100605.07
2018-06-13T18:15:45.607Z,100606.98
2018-06-13T18:18:13.967Z,100605.63
2018-06-13T18:20:42.322Z,100610.30
2018-06-13T18:23:10.738Z,100605.38
2018-06-13T18:25:38.953Z,100614.09
2018-06-13T18:28:07.193Z,100615.72
2018-06-13T18:30:35.383Z,100620.64
2018-06-13T18:33:03.627Z,100624.75
2018-06-13T18:35:31.810Z,100622.05
2018-06-13T18:38:00.065Z,100627.22
2018-06-13T18:40:28.335Z,100627.80
2018-06-13T18:42:56.673Z,100630.83
2018-06-13T18:45:24.960Z,100623.98
2018-06-13T18:47:53.236Z,100623.98
2018-06-13T18:50:21.483Z,100626.17
2018-06-13T18:52:49.656Z,100630.84
2018-06-13T18:55:17.937Z,100631.39
2018-06-13T18:57:46.331Z,100632.20
2018-06-13T19:00:14.501Z,100623.41
2018-06-13T19:02:42.747Z,100628.07
2018-06-13T19:05:11.087Z,100631.33
2018-06-13T19:07:39.481Z,100633.80
2018-06-13T19:10:07.775Z,100645.58
2018-06-13T19:12:36.375Z,100643.13
2018-06-13T19:15:04.631Z,100647.75
2018-06-13T19:17:32.943Z,100653.23
2018-06-13T19:20:01.257Z,100651.86
2018-06-13T19:22:29.536Z,100654.59
2018-06-13T19:24:57.847Z,100660.33
2018-06-13T19:27:26.304Z,100661.14
2018-06-13T19:29:54.519Z,100665.28
2018-06-13T19:32:22.824Z,100670.47
2018-06-13T19:34:51.116Z,100669.39
2018-06-13T19:37:19.364Z,100672.39
2018-06-13T19:39:47.823Z,100672.93
2018-06-13T19:42:16.162Z,100677.29
2018-06-13T19:44:44.840Z,100674.01
2018-06-13T19:47:18.457Z,100680.05
2018-06-13T19:49:46.692Z,100679.79
2018-06-13T19:52:15.025Z,100678.13
2018-06-13T19:54:49.668Z,100681.41
2018-06-13T19:57:18.259Z,100679.78
2018-06-13T19:59:47.108Z,100678.11
2018-06-13T20:02:15.727Z,100679.78
2018-06-13T20:04:49.334Z,100681.97
2018-06-13T20:07:17.619Z,100680.59
2018-06-13T20:09:45.786Z,100683.34
2018-06-13T20:12:47.163Z,100680.05
2018-06-13T20:15:20.749Z,100675.13
2018-06-13T20:17:54.433Z,100683.59
2018-06-13T20:20:22.844Z,100686.07
2018-06-13T20:22:51.913Z,100683.31
2018-06-13T20:25:25.488Z,100676.98
2018-06-13T20:27:59.121Z,100691.77
2018-06-13T20:31:31.581Z,100690.11
2018-06-13T20:33:59.820Z,100692.84
2018-06-13T20:36:28.041Z,100696.70
2018-06-13T20:38:56.279Z,100692.59
2018-06-13T20:41:24.616Z,100694.78
2018-06-13T20:43:53.298Z,100693.14
2018-06-13T20:46:21.496Z,100684.91
2018-06-13T20:48:49.748Z,100692.82
2018-06-13T20:51:17.983Z,100687.64
2018-06-13T20:53:46.236Z,100688.73
2018-06-13T20:56:15.067Z,100687.66
2018-06-13T20:58:43.358Z,100682.13
2018-06-13T21:01:11.590Z,100686.52
2018-06-13T21:03:39.808Z,100684.34
2018-06-13T21:06:08.102Z,100691.73
2018-06-13T21:08:36.403Z,100690.95
2018-06-13T21:11:05.089Z,100702.98
2018-06-13T21:13:33.379Z,100701.61
2018-06-13T21:16:01.632Z,100701.61
2018-06-13T21:18:29.861Z,100706.83
2018-06-13T21:20:58.165Z,100711.20
2018-06-13T21:23:26.380Z,100708.99
2018-06-13T21:25:55.266Z,100714.16
2018-06-13T21:28:24.380Z,100716.88
2018-06-13T21:30:52.903Z,100720.73
2018-06-13T21:33:21.677Z,100715.01
2018-06-13T21:35:49.851Z,100720.49
2018-06-13T21:38:18.536Z,100711.72
2018-06-13T21:40:46.856Z,100711.98
2018-06-13T21:43:15.089Z,100708.42
2018-06-13T21:45:43.405Z,100715.26
2018-06-13T21:48:11.620Z,100718.54
2018-06-13T21:50:39.928Z,100716.61
2018-06-13T21:53:08.177Z,100707.84
2018-06-13T21:55:36.408Z,100710.56
2018-06-13T21:58:04.775Z,100714.93
2018-06-13T22:00:33.043Z,100710.85
2018-06-13T22:03:01.322Z,100712.51
2018-06-13T22:05:29.598Z,100712.50
2018-06-13T22:07:57.817Z,100719.84
2018-06-13T22:10:26.160Z,100723.67
2018-06-13T22:12:54.348Z,100723.36
2018-06-13T22:15:25.704Z,100726.66
2018-06-13T22:17:55.556Z,100734.63
2018-06-13T22:20:23.826Z,100733.80
2018-06-13T22:22:52.169Z,100735.95
2018-06-13T22:25:20.871Z,100734.00
2018-06-13T22:27:49.102Z,100738.66
2018-06-13T22:30:17.488Z,100738.66
2018-06-13T22:32:46.379Z,100738.67
2018-06-13T22:35:15.204Z,100742.52
2018-06-13T22:37:43.498Z,100734.05
2018-06-13T22:40:11.696Z,100742.24
2018-06-13T22:42:39.947Z,100740.59
2018-06-13T22:45:08.270Z,100744.70
2018-06-13T22:47:36.508Z,100740.28
2018-06-13T22:50:04.735Z,100747.65
2018-06-13T22:52:32.998Z,100747.34
2018-06-13T22:55:01.246Z,100746.52
2018-06-13T22:57:29.707Z,100744.34
2018-06-13T22:59:57.993Z,100747.62
2018-06-13T23:02:26.233Z,100749.53
2018-06-13T23:04:54.485Z,100740.54
2018-06-13T23:07:22.732Z,100743.28
2018-06-13T23:09:50.889Z,100735.37
2018-06-13T23:12:19.144Z,100732.06
2018-06-13T23:14:47.365Z,100740.23
2018-06-13T23:17:15.615Z,100741.02
2018-06-13T23:19:43.834Z,100737.74
2018-06-13T23:22:12.016Z,100742.37
2018-06-13T23:24:40.249Z,100741.80
2018-06-13T23:27:08.618Z,100748.59
2018-06-13T23:29:36.817Z,100743.42
2018-06-13T23:32:05.133Z,100735.96
2018-06-13T23:34:33.356Z,100742.53
2018-06-13T23:37:01.607Z,100742.78
2018-06-13T23:39:29.844Z,100747.43
2018-06-13T23:41:58.345Z,100746.89
2018-06-13T23:44:26.764Z,100748.56
2018-06-13T23:46:55.034Z,100746.45
2018-06-13T23:49:23.328Z,100743.42
2018-06-13T23:51:51.488Z,100746.67
2018-06-13T23:54:19.805Z,100749.64
2018-06-13T23:56:48.057Z,100749.94
2018-06-13T23:59:16.286Z,100743.61
